Time;durP1;ratioP1;P1;durP2;ratioP2;P2;SDS_P1;SDS_P2;PMS_P1;PMS_P2;Temp;Humidity;BMP_temperature;BMP_pressure;BME280_temperature;BME280_humidity;BME280_pressure;Samples;Min_cycle;Max_cycle;Signal;HPM_P1;HPM_P2
2023/10/11 00:01:48;;;;;;;;;;;;;;;;;;;;;
2023/10/11 00:05:17;;;;;;;1452.68;999.90;;;16.50;99.90;;;;;;4737259;30;20060;-96
2023/10/11 00:07:47;;;;;;;1648.10;999.90;;;16.50;99.90;;;;;;4672622;30;20045;-96
2023/10/11 00:11:24;;;;;;;1581.97;999.90;;;16.40;99.90;;;;;;4741329;30;20069;-96
2023/10/11 00:13:32;;;;;;;1583.78;999.90;;;16.50;99.90;;;;;;4720463;30;20084;-96
2023/10/11 00:16:33;;;;;;;1364.38;987.75;;;16.40;99.90;;;;;;4722473;30;20064;-96
2023/10/11 00:19:10;;;;;;;1238.82;961.92;;;16.50;99.90;;;;;;4719936;30;20044;-96
2023/10/11 00:22:24;;;;;;;1268.32;966.50;;;16.50;99.90;;;;;;4726417;30;20091;-96
2023/10/11 00:25:23;;;;;;;1478.60;999.90;;;16.40;99.90;;;;;;4739375;30;20055;-96
2023/10/11 00:28:13;;;;;;;1395.20;993.38;;;16.50;99.90;;;;;;4717118;30;20075;-96
2023/10/11 00:31:12;;;;;;;;;;;;;;;;;;;;;
2023/10/11 00:34:32;;;;;;;1515.93;999.90;;;16.40;99.90;;;;;;4731000;30;20057;-96
2023/10/11 00:40:24;;;;;;;;;;;;;;;;;;;;;
2023/10/11 00:50:05;;;;;;;1451.78;986.70;;;16.50;99.90;;;;;;4702906;30;20061;-96
2023/10/11 00:52:51;;;;;;;1560.65;999.90;;;16.50;99.90;;;;;;4711633;30;20063;-96
2023/10/11 00:56:04;;;;;;;1533.57;999.90;;;16.50;99.90;;;;;;4667775;30;20065;-96
2023/10/11 01:02:46;;;;;;;;;;;;;;;;;;;;;
2023/10/11 01:05:45;;;;;;;1492.57;998.97;;;16.40;99.90;;;;;;4687484;30;20492;-96
2023/10/11 01:08:48;;;;;;;1560.82;999.90;;;16.50;99.90;;;;;;4676155;30;20149;-96
2023/10/11 01:11:59;;;;;;;1400.73;986.57;;;16.50;99.90;;;;;;4669794;30;20058;-96
2023/10/11 01:19:00;;;;;;;;;;;;;;;;;;;;;
2023/10/11 01:21:48;;;;;;;1136.05;912.45;;;16.50;99.90;;;;;;4696896;30;20052;-96
2023/10/11 01:25:05;;;;;;;;;;;;;;;;;;;;;
2023/10/11 01:28:05;;;;;;;1507.03;999.90;;;16.50;99.90;;;;;;4728438;30;20067;-96
2023/10/11 01:38:06;;;;;;;1403.80;991.92;;;16.40;99.90;;;;;;4695619;30;20063;-96
2023/10/11 01:52:25;;;;;;;1433.63;998.53;;;16.60;99.90;;;;;;4630689;30;20090;-96
2023/10/11 01:55:08;;;;;;;1582.20;999.90;;;16.40;99.90;;;;;;4623178;30;20066;-96
2023/10/11 02:02:09;;;;;;;1493.10;994.47;;;16.50;99.90;;;;;;4621778;30;20066;-96
2023/10/11 02:09:00;;;;;;;;;;;;;;;;;;;;;
2023/10/11 02:12:10;;;;;;;1368.75;985.00;;;16.40;99.90;;;;;;4672928;30;20050;-96
2023/10/11 02:14:55;;;;;;;;;;;;;;;;;;;;;
2023/10/11 02:21:28;;;;;;;1199.43;941.63;;;16.40;99.90;;;;;;4651821;30;20054;-96
2023/10/11 02:23:59;;;;;;;1273.72;958.85;;;16.40;99.90;;;;;;4667712;30;20054;-96
2023/10/11 02:27:17;;;;;;;1432.70;989.65;;;16.40;99.90;;;;;;4641773;30;20073;-96
2023/10/11 02:30:44;;;;;;;1470.00;994.35;;;16.50;99.90;;;;;;4665021;30;20091;-96
2023/10/11 02:34:04;;;;;;;1170.03;923.05;;;16.40;99.90;;;;;;4637800;30;20097;-96
2023/10/11 02:39:51;;;;;;;1464.53;999.25;;;16.20;99.90;;;;;;4718213;30;20064;-96
2023/10/11 02:42:56;;;;;;;;;;;;;;;;;;;;;
2023/10/11 02:46:02;;;;;;;;;;;;;;;;;;;;;
2023/10/11 02:52:10;;;;;;;1539.50;999.90;;;16.20;99.90;;;;;;4740477;30;20052;-96
2023/10/11 02:54:50;;;;;;;;;;;;;;;;;;;;;
2023/10/11 02:58:05;;;;;;;1556.88;999.90;;;16.20;99.90;;;;;;4738302;30;19914;-96
2023/10/11 03:00:46;;;;;;;1575.68;999.90;;;16.20;99.90;;;;;;4711547;30;20068;-96
2023/10/11 03:03:27;;;;;;;1506.88;999.90;;;16.20;99.90;;;;;;4705428;30;20068;-96
2023/10/11 03:06:35;;;;;;;1349.05;976.42;;;16.20;99.90;;;;;;4710725;30;20533;-96
2023/10/11 03:10:21;;;;;;;1368.65;979.60;;;16.00;99.90;;;;;;4717162;30;20066;-96
2023/10/11 03:15:54;;;;;;;;;;;;;;;;;;;;;
2023/10/11 03:18:59;;;;;;;1590.90;999.90;;;16.20;99.90;;;;;;4715360;30;20063;-96
2023/10/11 03:22:19;;;;;;;;;;;;;;;;;;;;;
2023/10/11 03:25:12;;;;;;;1387.70;987.55;;;16.20;99.90;;;;;;4692376;30;20131;-96
2023/10/11 03:27:55;;;;;;;1554.13;999.90;;;16.10;99.90;;;;;;4741867;30;20044;-96
2023/10/11 03:36:35;;;;;;;1567.68;999.90;;;16.30;99.90;;;;;;4720028;30;20091;-96
2023/10/11 03:39:40;;;;;;;1364.18;975.70;;;16.30;99.90;;;;;;4720487;30;20044;-96
2023/10/11 03:45:59;;;;;;;1547.53;999.90;;;16.30;99.90;;;;;;4715398;30;20060;-96
2023/10/11 03:48:52;;;;;;;1466.68;993.72;;;16.20;99.90;;;;;;4705548;30;20114;-96
2023/10/11 03:51:48;;;;;;;1526.93;999.90;;;16.20;99.90;;;;;;4731392;30;20116;-96
2023/10/11 03:55:09;;;;;;;1514.07;999.83;;;16.30;99.90;;;;;;4757109;30;20056;-96
2023/10/11 04:01:34;;;;;;;;;;;;;;;;;;;;;
2023/10/11 04:04:22;;;;;;;1557.85;999.90;;;16.20;99.90;;;;;;4727627;29;20064;-96
2023/10/11 04:07:24;;;;;;;1353.82;981.67;;;16.20;99.90;;;;;;4742854;30;20039;-96
2023/10/11 04:10:38;;;;;;;1469.50;999.72;;;16.20;99.90;;;;;;4748073;30;20116;-96
2023/10/11 04:13:25;;;;;;;1466.95;992.13;;;16.10;99.90;;;;;;4743360;30;20056;-96
2023/10/11 04:15:55;;;;;;;1477.13;995.53;;;16.10;99.90;;;;;;4748886;30;20075;-96
2023/10/11 04:19:48;;;;;;;;;;;;;;;;;;;;;
2023/10/11 04:25:10;;;;;;;1556.07;999.90;;;16.20;99.90;;;;;;4770475;30;20082;-96
2023/10/11 04:28:41;;;;;;;1522.05;999.90;;;16.20;99.90;;;;;;4742135;30;20059;-96
2023/10/11 04:35:36;;;;;;;1543.32;999.90;;;16.10;99.90;;;;;;4747061;30;20560;-96
2023/10/11 04:39:01;;;;;;;;;;;;;;;;;;;;;
2023/10/11 04:42:03;;;;;;;;;;;;;;;;;;;;;
2023/10/11 04:45:29;;;;;;;1453.97;992.97;;;16.00;99.90;;;;;;4673104;30;20075;-96
2023/10/11 04:51:45;;;;;;;1635.35;999.90;;;16.00;99.90;;;;;;4666858;30;20061;-96
2023/10/11 04:55:15;;;;;;;1608.25;999.90;;;15.90;99.90;;;;;;4670191;30;20065;-96
2023/10/11 04:58:50;;;;;;;1572.15;999.90;;;16.00;99.90;;;;;;4709527;30;20041;-96
2023/10/11 05:04:12;;;;;;;;;;;;;;;;;;;;;
2023/10/11 05:08:08;;;;;;;1477.38;996.03;;;16.00;99.90;;;;;;4630246;31;20059;-96
2023/10/11 05:10:46;;;;;;;1499.70;994.50;;;16.00;99.90;;;;;;4625644;30;20043;-96
2023/10/11 05:13:15;;;;;;;1531.30;999.08;;;16.00;99.90;;;;;;4670477;30;20136;-96
2023/10/11 05:16:06;;;;;;;1565.20;999.90;;;16.00;99.90;;;;;;4696703;30;20052;-96
2023/10/11 05:18:52;;;;;;;1564.82;999.90;;;16.40;99.90;;;;;;4724282;30;20558;-96
2023/10/11 05:21:26;;;;;;;1507.25;999.90;;;15.90;99.90;;;;;;4725754;30;20074;-95
2023/10/11 05:24:14;;;;;;;1534.03;999.90;;;16.00;99.90;;;;;;4731970;30;20088;-96
2023/10/11 05:27:35;;;;;;;;;;;;;;;;;;;;;
2023/10/11 05:30:29;;;;;;;1399.07;989.58;;;16.10;99.90;;;;;;4722161;30;20051;-96
2023/10/11 05:33:28;;;;;;;;;;;;;;;;;;;;;
2023/10/11 05:36:48;;;;;;;1592.82;999.90;;;16.10;99.90;;;;;;4746058;30;20088;-96
2023/10/11 05:56:47;;;;;;;1489.55;997.70;;;16.10;99.90;;;;;;4713911;30;20056;-95
2023/10/11 05:59:46;;;;;;;1458.72;998.28;;;16.20;99.90;;;;;;4734861;30;20057;-96
2023/10/11 06:02:30;;;;;;;1584.63;999.90;;;16.20;99.90;;;;;;4754337;30;20078;-96
2023/10/11 06:05:20;;;;;;;;;;;;;;;;;;;;;
2023/10/11 06:08:29;;;;;;;;;;;;;;;;;;;;;
2023/10/11 06:11:28;;;;;;;1467.95;997.30;;;16.20;99.90;;;;;;4755285;30;20105;-96
2023/10/11 06:14:12;;;;;;;1483.65;999.90;;;16.30;99.90;;;;;;4757710;30;20055;-96
2023/10/11 06:17:32;;;;;;;1470.03;996.72;;;16.20;99.90;;;;;;4739373;30;20431;-96
2023/10/11 06:19:31;;;;;;;1439.60;994.83;;;16.30;99.90;;;;;;4746930;30;20409;-96
2023/10/11 06:22:23;;;;;;;1427.20;993.72;;;16.30;99.90;;;;;;4742365;30;20050;-96
2023/10/11 06:28:30;;;;;;;1542.32;999.90;;;16.40;99.90;;;;;;4730570;30;20501;-96
2023/10/11 06:31:24;;;;;;;;;;;;;;;;;;;;;
2023/10/11 06:34:03;;;;;;;;;;;;;;;;;;;;;
2023/10/11 06:37:36;;;;;;;1243.43;934.13;;;16.50;99.90;;;;;;4748932;30;20066;-96
2023/10/11 06:40:13;;;;;;;1257.22;957.78;;;16.50;99.90;;;;;;4728430;30;20059;-96
2023/10/11 06:42:45;;;;;;;1396.72;991.25;;;16.50;99.90;;;;;;4743449;30;20107;-96
2023/10/11 06:45:55;;;;;;;1237.38;947.78;;;16.40;99.90;;;;;;4721016;30;20068;-96
2023/10/11 06:48:29;;;;;;;1443.28;989.38;;;16.50;99.90;;;;;;4745626;30;20056;-94
2023/10/11 06:51:35;;;;;;;1348.60;983.85;;;16.50;99.90;;;;;;4740386;30;20062;-96
2023/10/11 06:54:25;;;;;;;1422.18;991.58;;;16.60;99.90;;;;;;4737180;30;20112;-95
2023/10/11 06:57:20;;;;;;;1454.57;998.33;;;16.50;99.90;;;;;;4746555;30;20055;-96
2023/10/11 07:00:00;;;;;;;;;;;;;;;;;;;;;
2023/10/11 07:03:28;;;;;;;1263.65;952.28;;;16.60;99.90;;;;;;4750804;30;20136;-96
2023/10/11 07:06:34;;;;;;;;;;;;;;;;;;;;;
2023/10/11 07:09:09;;;;;;;1312.43;971.45;;;16.70;99.90;;;;;;4733346;30;20068;-96
2023/10/11 07:14:35;;;;;;;1357.55;993.53;;;16.70;99.90;;;;;;4695856;30;20065;-96
2023/10/11 07:17:01;;;;;;;1339.45;981.58;;;16.80;99.90;;;;;;4744657;30;20076;-96
2023/10/11 07:19:42;;;;;;;1330.97;971.83;;;16.90;99.90;;;;;;4763894;30;20056;-96
2023/10/11 07:22:39;;;;;;;1346.65;982.65;;;16.90;99.90;;;;;;4746017;30;20095;-96
2023/10/11 07:25:36;;;;;;;1354.18;980.40;;;16.90;99.90;;;;;;4734128;30;20071;-96
2023/10/11 07:28:17;;;;;;;1356.53;982.85;;;17.00;99.90;;;;;;4736786;30;20083;-96
2023/10/11 07:31:00;;;;;;;;;;;;;;;;;;;;;
2023/10/11 07:34:09;;;;;;;1339.15;981.00;;;17.10;99.90;;;;;;4757937;30;20045;-96
2023/10/11 07:36:52;;;;;;;1303.43;980.58;;;17.10;99.90;;;;;;4769083;30;20060;-96
2023/10/11 07:42:43;;;;;;;1345.43;976.28;;;17.10;99.90;;;;;;4760235;30;20107;-96
2023/10/11 07:48:54;;;;;;;1307.85;962.53;;;17.30;99.90;;;;;;4733344;30;20084;-96
2023/10/11 07:51:44;;;;;;;1292.78;971.15;;;17.30;99.90;;;;;;4748149;30;20365;-96
2023/10/11 07:54:28;;;;;;;1347.10;973.85;;;17.30;99.90;;;;;;4744038;30;20097;-96
2023/10/11 07:57:15;;;;;;;1351.88;982.22;;;17.40;99.90;;;;;;4742752;30;20395;-96
2023/10/11 07:59:52;;;;;;;1314.97;969.45;;;17.30;99.90;;;;;;4737548;30;20091;-96
2023/10/11 08:03:21;;;;;;;1344.25;974.15;;;17.20;99.90;;;;;;4757849;30;20052;-96
2023/10/11 08:08:43;;;;;;;1197.78;931.28;;;17.30;99.90;;;;;;4727713;30;20047;-96
2023/10/11 08:11:48;;;;;;;1273.95;961.50;;;17.40;99.90;;;;;;4728719;30;20047;-96
2023/10/11 08:14:39;;;;;;;1286.78;964.42;;;17.40;99.90;;;;;;4701612;30;20045;-96
2023/10/11 08:17:27;;;;;;;1276.05;968.67;;;17.40;99.90;;;;;;4728284;30;20041;-96
2023/10/11 08:19:59;;;;;;;1316.32;974.42;;;17.40;99.90;;;;;;4712080;30;20109;-96
2023/10/11 08:22:27;;;;;;;1384.95;989.15;;;17.30;99.90;;;;;;4702663;30;20053;-96
2023/10/11 08:24:59;;;;;;;1359.07;982.30;;;17.30;99.90;;;;;;4726484;30;20066;-96
2023/10/11 08:27:33;;;;;;;1376.53;999.90;;;17.30;99.90;;;;;;4711844;30;20113;-96
2023/10/11 08:30:15;;;;;;;1399.03;991.20;;;17.30;99.90;;;;;;4717386;30;20063;-95
2023/10/11 08:33:04;;;;;;;1335.05;986.85;;;17.40;99.90;;;;;;4724397;30;20149;-96
2023/10/11 08:36:00;;;;;;;1362.90;990.25;;;17.40;99.90;;;;;;4711614;30;20090;-96
2023/10/11 08:39:46;;;;;;;1370.72;989.83;;;17.60;99.90;;;;;;4724073;30;20082;-96
2023/10/11 08:42:18;;;;;;;1279.20;959.08;;;17.70;99.90;;;;;;4685490;30;20063;-90
2023/10/11 08:48:38;;;;;;;1281.18;954.13;;;17.50;99.90;;;;;;4658200;30;20057;-94
2023/10/11 08:51:48;;;;;;;1325.75;973.50;;;17.50;99.90;;;;;;4661190;30;20058;-90
2023/10/11 08:57:48;;;;;;;1289.53;966.42;;;17.40;99.90;;;;;;4678909;30;20052;-86
2023/10/11 09:03:31;;;;;;;1257.50;959.95;;;17.30;99.90;;;;;;4698541;30;20109;-88
2023/10/11 09:06:05;;;;;;;1275.82;955.83;;;17.40;99.90;;;;;;4718716;30;20248;-93
2023/10/11 09:08:47;;;;;;;1276.97;964.60;;;17.30;99.90;;;;;;4709842;30;20250;-92
2023/10/11 09:11:28;;;;;;;1199.40;931.67;;;17.30;99.90;;;;;;4702495;30;20052;-89
2023/10/11 09:14:22;;;;;;;1222.97;957.45;;;17.30;99.90;;;;;;4694872;30;20080;-90
2023/10/11 09:16:49;;;;;;;1195.85;949.60;;;17.30;99.90;;;;;;4703917;30;20060;-91
2023/10/11 09:19:19;;;;;;;1275.70;963.92;;;17.30;99.90;;;;;;4704332;30;20589;-91
2023/10/11 09:22:02;;;;;;;1244.05;959.28;;;17.30;99.90;;;;;;4699231;30;20091;-90
2023/10/11 09:24:36;;;;;;;1189.43;943.28;;;17.30;99.90;;;;;;4699165;30;20117;-90
2023/10/11 09:29:42;;;;;;;1295.72;973.13;;;17.50;99.90;;;;;;4728493;30;20111;-90
2023/10/11 09:32:09;;;;;;;1326.75;982.00;;;17.60;99.90;;;;;;4697398;30;20095;-89
2023/10/11 09:34:41;;;;;;;1322.18;981.47;;;17.60;99.90;;;;;;4703237;30;20140;-89
2023/10/11 09:37:11;;;;;;;1288.93;978.85;;;17.70;99.90;;;;;;4703515;30;20121;-89
2023/10/11 09:39:42;;;;;;;1336.00;976.47;;;17.70;99.90;;;;;;4709435;30;20060;-89
2023/10/11 09:42:11;;;;;;;1385.03;994.58;;;17.80;99.90;;;;;;4707554;30;20043;-90
2023/10/11 09:44:37;;;;;;;1366.20;992.22;;;17.80;99.90;;;;;;4714623;30;20083;-89
2023/10/11 09:47:05;;;;;;;1415.28;999.90;;;17.90;99.90;;;;;;4709897;30;20041;-90
2023/10/11 09:49:41;;;;;;;1337.18;989.15;;;17.90;99.90;;;;;;4709016;30;20055;-90
2023/10/11 09:52:09;;;;;;;1393.45;984.92;;;18.00;99.90;;;;;;4713905;30;20055;-90
2023/10/11 09:54:38;;;;;;;1381.03;974.55;;;18.00;99.90;;;;;;4712016;30;20049;-89
2023/10/11 09:57:29;;;;;;;1421.78;996.03;;;18.00;99.90;;;;;;4715917;30;20505;-90
2023/10/11 10:00:18;;;;;;;1381.40;993.40;;;18.00;99.90;;;;;;4709749;30;20487;-90
2023/10/11 10:02:50;;;;;;;1354.85;979.13;;;18.00;99.90;;;;;;4710508;30;20404;-90
2023/10/11 10:05:25;;;;;;;1401.95;988.75;;;17.90;99.90;;;;;;4713079;30;20052;-93
2023/10/11 10:07:52;;;;;;;1348.47;976.67;;;18.00;99.90;;;;;;4710359;30;20072;-94
2023/10/11 10:10:25;;;;;;;1362.60;986.25;;;18.00;99.90;;;;;;4699107;30;20084;-93
2023/10/11 10:12:57;;;;;;;1303.30;973.88;;;18.10;99.90;;;;;;4706326;30;20490;-95
2023/10/11 10:15:31;;;;;;;1440.72;999.90;;;18.20;99.90;;;;;;4713408;30;20044;-95
2023/10/11 10:17:58;;;;;;;1456.70;997.13;;;18.30;99.90;;;;;;4704010;30;20084;-93
2023/10/11 10:20:38;;;;;;;1431.97;995.42;;;18.40;99.90;;;;;;4715781;30;20510;-96
2023/10/11 10:23:14;;;;;;;1400.10;990.25;;;18.50;99.90;;;;;;4721097;30;20466;-95
2023/10/11 10:25:46;;;;;;;1423.13;999.90;;;18.50;99.90;;;;;;4714951;30;20084;-96
2023/10/11 10:28:39;;;;;;;1314.50;963.45;;;18.60;99.90;;;;;;4708113;30;20146;-94
2023/10/11 10:31:08;;;;;;;1399.03;989.42;;;18.60;99.90;;;;;;4714671;30;20241;-95
2023/10/11 10:33:35;;;;;;;1441.15;999.90;;;18.60;99.90;;;;;;4718875;30;20149;-96
2023/10/11 10:36:28;;;;;;;1441.32;999.90;;;18.70;99.90;;;;;;4719957;30;20123;-94
2023/10/11 10:39:00;;;;;;;;;;;18.70;99.90;;;;;;4717050;30;20075;-94
2023/10/11 10:41:27;;;;;;;1344.38;967.95;;;18.70;99.90;;;;;;4713814;30;19930;-94
2023/10/11 10:44:16;;;;;;;1422.50;992.05;;;18.80;99.90;;;;;;4710831;30;20047;-95
2023/10/11 10:46:55;;;;;;;1305.38;945.33;;;18.80;99.90;;;;;;4708703;30;20040;-95
2023/10/11 10:49:29;;;;;;;1496.95;982.67;;;18.90;99.90;;;;;;4692377;30;20501;-94
2023/10/11 10:51:57;;;;;;;1372.45;967.35;;;19.10;99.90;;;;;;4715293;30;20049;-96
2023/10/11 10:54:23;;;;;;;1207.93;892.55;;;19.30;99.90;;;;;;4714200;30;20056;-94
2023/10/11 10:56:58;;;;;;;1036.68;818.10;;;19.50;99.90;;;;;;4707538;30;20056;-94
2023/10/11 10:59:26;;;;;;;1006.05;803.03;;;19.50;99.90;;;;;;4698542;30;20045;-94
2023/10/11 11:01:53;;;;;;;1092.25;819.55;;;19.60;99.90;;;;;;4706439;30;20052;-95
2023/10/11 11:04:24;;;;;;;882.05;751.38;;;19.70;99.90;;;;;;4702449;30;20048;-94
2023/10/11 11:06:52;;;;;;;928.92;770.38;;;19.80;99.90;;;;;;4712166;30;20049;-94
2023/10/11 11:09:25;;;;;;;966.95;799.00;;;19.80;99.90;;;;;;4725549;30;20056;-94
2023/10/11 11:12:03;;;;;;;917.90;774.78;;;19.80;99.90;;;;;;4719908;30;20048;-93
2023/10/11 11:14:29;;;;;;;998.90;804.17;;;19.80;99.90;;;;;;4725120;30;20063;-93
2023/10/11 11:16:57;;;;;;;1021.40;826.70;;;19.70;99.90;;;;;;4735549;30;20511;-94
2023/10/11 11:19:26;;;;;;;972.75;802.30;;;19.70;99.90;;;;;;4726016;30;20044;-95
2023/10/11 11:22:11;;;;;;;945.60;779.80;;;19.60;99.90;;;;;;4732816;30;20082;-95
2023/10/11 11:24:38;;;;;;;992.00;815.95;;;19.60;99.90;;;;;;4719987;30;20063;-93
2023/10/11 11:27:15;;;;;;;1019.40;822.55;;;19.50;99.90;;;;;;4727065;30;20049;-94
2023/10/11 11:29:41;;;;;;;1075.57;856.53;;;19.40;99.90;;;;;;4726735;30;20157;-94
2023/10/11 11:32:23;;;;;;;1009.00;817.25;;;19.40;99.90;;;;;;4727065;30;20062;-92
2023/10/11 11:35:09;;;;;;;967.88;790.20;;;19.30;99.90;;;;;;4729339;30;20056;-94
2023/10/11 11:37:39;;;;;;;983.40;801.65;;;19.20;99.90;;;;;;4713214;30;20052;-94
2023/10/11 11:40:19;;;;;;;1054.68;843.85;;;19.20;99.90;;;;;;4722124;30;20060;-94
2023/10/11 11:42:48;;;;;;;915.90;790.40;;;19.20;99.90;;;;;;4726592;30;20102;-93
2023/10/11 11:45:19;;;;;;;965.92;799.00;;;19.20;99.90;;;;;;4727302;30;20087;-95
2023/10/11 11:47:56;;;;;;;953.42;794.20;;;19.20;99.90;;;;;;4716570;30;20056;-94
2023/10/11 11:50:25;;;;;;;877.90;762.28;;;19.20;99.90;;;;;;4719871;30;20055;-95
2023/10/11 11:52:51;;;;;;;833.70;742.45;;;19.30;99.90;;;;;;4731459;30;20159;-92
2023/10/11 11:55:22;;;;;;;856.90;757.97;;;19.30;99.90;;;;;;4737707;30;20048;-93
2023/10/11 11:57:48;;;;;;;949.33;797.65;;;19.30;99.90;;;;;;4734542;30;20059;-93
2023/10/11 12:02:52;;;;;;;1082.53;856.83;;;19.30;99.90;;;;;;4750063;30;20063;-93
2023/10/11 12:05:19;;;;;;;989.63;827.95;;;19.50;99.90;;;;;;4733083;30;20067;-94
2023/10/11 12:07:47;;;;;;;1226.93;899.40;;;19.60;99.90;;;;;;4733221;30;20075;-94
2023/10/11 12:10:23;;;;;;;1103.35;853.47;;;19.70;99.90;;;;;;4739330;30;20079;-93
2023/10/11 12:12:50;;;;;;;977.05;817.60;;;19.90;99.90;;;;;;4737719;30;20056;-95
2023/10/11 12:15:22;;;;;;;951.13;809.67;;;20.00;99.90;;;;;;4736502;30;20044;-94
2023/10/11 12:17:53;;;;;;;964.20;791.55;;;20.10;99.90;;;;;;4736051;30;20152;-92
2023/10/11 12:20:22;;;;;;;884.00;761.33;;;20.20;99.90;;;;;;4737282;30;20544;-91
2023/10/11 12:22:50;;;;;;;904.47;774.70;;;20.40;99.90;;;;;;4737796;30;20047;-93
2023/10/11 12:25:24;;;;;;;1023.90;843.15;;;20.40;99.90;;;;;;4740474;30;20139;-96
2023/10/11 12:27:51;;;;;;;1045.70;831.80;;;20.30;99.90;;;;;;4726557;30;20063;-95
2023/10/11 12:30:22;;;;;;;1076.95;867.92;;;20.20;99.90;;;;;;4736685;30;20105;-94
2023/10/11 12:32:50;;;;;;;932.80;825.97;;;20.10;99.90;;;;;;4745158;30;20044;-92
2023/10/11 12:35:16;;;;;;;1074.53;850.13;;;19.90;99.90;;;;;;4731724;30;20052;-92
2023/10/11 12:37:42;;;;;;;1023.60;815.30;;;19.70;99.90;;;;;;4737151;30;20185;-93
2023/10/11 12:40:13;;;;;;;974.13;796.38;;;19.60;99.90;;;;;;4734819;30;20110;-93
2023/10/11 12:42:42;;;;;;;838.25;744.70;;;19.50;99.90;;;;;;4736964;30;20051;-93
2023/10/11 12:45:08;;;;;;;845.28;749.83;;;19.30;99.90;;;;;;4735163;30;20056;-93
2023/10/11 12:47:35;;;;;;;845.65;752.00;;;19.20;99.90;;;;;;4717396;30;20489;-92
2023/10/11 12:50:03;;;;;;;1017.47;813.75;;;19.20;99.90;;;;;;4721044;30;20059;-92
2023/10/11 12:52:30;;;;;;;1006.95;831.45;;;19.20;99.90;;;;;;4718698;30;20075;-93
2023/10/11 12:54:57;;;;;;;1010.38;838.03;;;19.20;99.90;;;;;;4715454;30;20083;-92
2023/10/11 12:57:27;;;;;;;970.00;808.40;;;19.20;99.90;;;;;;4721229;30;20083;-93
2023/10/11 12:59:53;;;;;;;1047.93;839.95;;;19.30;99.90;;;;;;4721797;30;20056;-91
2023/10/11 13:02:21;;;;;;;896.92;789.67;;;19.30;99.90;;;;;;4719340;30;20153;-92
2023/10/11 13:04:48;;;;;;;942.53;799.92;;;19.40;99.90;;;;;;4717606;30;20079;-93
2023/10/11 13:07:14;;;;;;;951.67;802.08;;;19.40;99.90;;;;;;4719561;30;20084;-93
2023/10/11 13:09:41;;;;;;;989.78;834.47;;;19.50;99.90;;;;;;4717936;30;20066;-94
2023/10/11 13:12:08;;;;;;;1002.60;829.92;;;19.50;99.90;;;;;;4718329;30;20498;-94
2023/10/11 13:14:38;;;;;;;996.42;826.10;;;19.50;99.90;;;;;;4719034;30;20080;-92
2023/10/11 13:17:11;;;;;;;1122.63;879.25;;;19.40;99.90;;;;;;4738667;30;20043;-93
2023/10/11 13:19:37;;;;;;;1144.60;913.70;;;19.30;99.90;;;;;;4725122;30;20056;-94
2023/10/11 13:22:09;;;;;;;1265.70;927.00;;;19.20;99.90;;;;;;4718176;30;20066;-91
2023/10/11 13:24:35;;;;;;;1296.13;965.88;;;19.10;99.90;;;;;;4722246;30;20040;-93
2023/10/11 13:27:04;;;;;;;1288.90;970.88;;;19.10;99.90;;;;;;4717796;30;20059;-94
2023/10/11 13:29:32;;;;;;;1325.82;967.05;;;19.10;99.90;;;;;;4719436;30;20139;-93
2023/10/11 13:31:59;;;;;;;1340.93;958.58;;;19.20;99.90;;;;;;4718767;30;20096;-96
2023/10/11 13:34:28;;;;;;;1203.65;896.97;;;19.20;99.90;;;;;;4721366;30;20138;-94
2023/10/11 13:36:57;;;;;;;1081.10;852.97;;;19.20;99.90;;;;;;4718867;30;20084;-95
2023/10/11 13:39:25;;;;;;;1024.57;834.67;;;19.10;99.90;;;;;;4721465;30;20052;-94
2023/10/11 13:41:54;;;;;;;1258.65;941.67;;;19.10;99.90;;;;;;4732377;30;20085;-92
2023/10/11 13:44:21;;;;;;;1285.18;932.38;;;19.00;99.90;;;;;;4720836;30;20052;-92
2023/10/11 13:46:52;;;;;;;1307.60;970.00;;;19.00;99.90;;;;;;4720047;30;20409;-93
2023/10/11 13:49:25;;;;;;;1310.45;981.70;;;18.90;99.90;;;;;;4728149;30;20138;-95
2023/10/11 13:51:54;;;;;;;1292.57;982.23;;;18.70;99.90;;;;;;4726272;30;20114;-95
2023/10/11 13:54:36;;;;;;;1164.38;956.67;;;18.60;99.90;;;;;;4740324;30;20313;-93
2023/10/11 13:57:31;;;;;;;1146.32;943.78;;;18.50;99.90;;;;;;4742375;30;20052;-96
2023/10/11 13:59:54;;;;;;;1451.28;999.90;;;18.50;99.90;;;;;;4753377;30;20486;-96
2023/10/11 14:07:50;;;;;;;1407.60;996.40;;;18.60;99.90;;;;;;4753920;30;20048;-96
2023/10/11 14:10:27;;;;;;;1288.78;970.55;;;18.70;99.90;;;;;;4759257;30;20052;-96
2023/10/11 14:13:07;;;;;;;1127.50;928.17;;;18.70;99.90;;;;;;4725353;30;20052;-96
2023/10/11 14:15:35;;;;;;;1385.18;995.10;;;18.70;99.90;;;;;;4716755;30;20075;-94
2023/10/11 14:18:03;;;;;;;1357.05;984.75;;;18.80;99.90;;;;;;4724850;30;20067;-95
2023/10/11 14:20:31;;;;;;;1475.82;999.90;;;18.80;99.90;;;;;;4733363;30;20506;-96
2023/10/11 14:23:09;;;;;;;1371.47;979.42;;;18.80;99.90;;;;;;4729161;30;20577;-96
2023/10/11 14:25:35;;;;;;;1392.03;988.22;;;18.70;99.90;;;;;;4726268;30;20049;-95
2023/10/11 14:28:03;;;;;;;1310.88;973.42;;;18.80;99.90;;;;;;4737838;30;20075;-96
2023/10/11 14:30:29;;;;;;;1411.07;997.92;;;18.90;99.90;;;;;;4725519;30;20119;-95
2023/10/11 14:32:58;;;;;;;1282.90;981.60;;;18.90;99.90;;;;;;4741048;30;20182;-96
2023/10/11 14:35:26;;;;;;;1380.75;998.33;;;18.90;99.90;;;;;;4748327;30;20042;-95
2023/10/11 14:37:52;;;;;;;1187.95;950.97;;;18.90;99.90;;;;;;4744023;30;20052;-96
2023/10/11 14:40:24;;;;;;;1166.88;943.28;;;18.80;99.90;;;;;;4746115;30;20060;-96
2023/10/11 14:42:50;;;;;;;1348.53;990.58;;;18.90;99.90;;;;;;4735345;30;20236;-96
2023/10/11 14:45:21;;;;;;;1269.50;959.10;;;18.90;99.90;;;;;;4716889;30;20080;-96
2023/10/11 14:47:48;;;;;;;1164.72;949.13;;;18.90;99.90;;;;;;4734115;30;20052;-96
2023/10/11 14:50:16;;;;;;;1401.32;990.30;;;18.90;99.90;;;;;;4741307;30;20134;-96
2023/10/11 14:52:46;;;;;;;1408.80;990.83;;;18.90;99.90;;;;;;4730649;30;20143;-96
2023/10/11 14:55:20;;;;;;;1462.13;993.67;;;18.80;99.90;;;;;;4744558;30;20048;-96
2023/10/11 14:57:52;;;;;;;1359.97;984.13;;;18.80;99.90;;;;;;4744919;30;20393;-96
2023/10/11 15:00:23;;;;;;;1357.57;993.97;;;18.80;99.90;;;;;;4747921;30;20493;-95
2023/10/11 15:03:10;;;;;;;1353.88;996.50;;;18.50;99.90;;;;;;4767328;30;20040;-96
2023/10/11 15:05:36;;;;;;;1319.82;978.45;;;18.70;99.90;;;;;;4751320;30;20056;-96
2023/10/11 15:08:05;;;;;;;1326.93;984.60;;;18.80;99.90;;;;;;4712777;30;20057;-96
2023/10/11 15:10:34;;;;;;;1427.45;989.75;;;18.70;99.90;;;;;;4712806;30;20052;-96
2023/10/11 15:13:01;;;;;;;1430.63;999.17;;;18.70;99.90;;;;;;4747005;30;20064;-96
2023/10/11 15:15:28;;;;;;;1365.90;988.40;;;18.70;99.90;;;;;;4722674;30;20048;-92
2023/10/11 15:17:55;;;;;;;1286.10;953.88;;;18.80;99.90;;;;;;4711467;30;20056;-93
2023/10/11 15:20:21;;;;;;;1430.63;999.78;;;18.70;99.90;;;;;;4720795;30;20048;-94
2023/10/11 15:22:47;;;;;;;1435.55;999.90;;;18.70;99.90;;;;;;4712348;30;20684;-92
2023/10/11 15:25:14;;;;;;;1479.22;999.90;;;18.70;99.90;;;;;;4714782;30;20140;-92
2023/10/11 15:27:42;;;;;;;1476.20;999.90;;;18.70;99.90;;;;;;4712107;30;20485;-93
2023/10/11 15:30:09;;;;;;;1498.47;999.90;;;18.70;99.90;;;;;;4718733;30;20053;-92
2023/10/11 15:32:39;;;;;;;1316.30;972.08;;;18.80;99.90;;;;;;4706717;30;20056;-93
2023/10/11 15:35:07;;;;;;;1433.80;999.90;;;18.80;99.90;;;;;;4716961;30;20075;-95
2023/10/11 15:37:33;;;;;;;1489.82;999.90;;;18.70;99.90;;;;;;4705900;30;20102;-96
2023/10/11 15:40:05;;;;;;;1479.28;999.90;;;18.70;99.90;;;;;;4704764;30;20052;-95
2023/10/11 15:42:32;;;;;;;1433.05;999.90;;;18.60;99.90;;;;;;4693026;30;20101;-94
2023/10/11 15:44:58;;;;;;;1305.28;980.25;;;18.60;99.90;;;;;;4709136;30;20056;-93
2023/10/11 15:47:25;;;;;;;1342.97;983.67;;;18.60;99.90;;;;;;4712416;30;20048;-94
2023/10/11 15:49:58;;;;;;;1141.30;940.20;;;18.50;99.90;;;;;;4703973;30;20071;-94
2023/10/11 15:52:24;;;;;;;1215.65;949.28;;;18.80;99.90;;;;;;4714343;30;20079;-94
2023/10/11 15:54:51;;;;;;;1175.78;937.30;;;18.40;99.90;;;;;;4708598;30;20178;-93
2023/10/11 15:57:25;;;;;;;1459.40;995.13;;;18.40;99.90;;;;;;4711097;30;20132;-96
2023/10/11 15:59:52;;;;;;;1441.28;995.05;;;18.30;99.90;;;;;;4726129;30;20062;-95
2023/10/11 16:02:18;;;;;;;1406.45;991.78;;;18.20;99.90;;;;;;4721249;30;20131;-95
2023/10/11 16:04:44;;;;;;;1359.10;994.83;;;18.10;99.90;;;;;;4719236;30;20139;-95
2023/10/11 16:07:10;;;;;;;1451.88;999.90;;;18.10;99.90;;;;;;4712843;30;20061;-95